Time;durP1;ratioP1;P1;durP2;ratioP2;P2;SDS_P1;SDS_P2;PMS_P1;PMS_P2;Temp;Humidity;BMP_temperature;BMP_pressure;BME280_temperature;BME280_humidity;BME280_pressure;Samples;Min_cycle;Max_cycle;Signal;HPM_P1;HPM_P2
2022/09/28 00:01:33;;;;;;;1.90;1.20;;;11.30;99.40;;;;;;954632;148;27310;-77
2022/09/28 00:04:00;;;;;;;1.67;1.17;;;11.40;99.40;;;;;;957870;148;27440;-77
2022/09/28 00:06:26;;;;;;;1.30;1.20;;;11.40;99.50;;;;;;957649;148;27331;-77
2022/09/28 00:08:53;;;;;;;1.13;0.97;;;11.40;99.60;;;;;;944307;148;27352;-77
2022/09/28 00:11:19;;;;;;;1.77;1.40;;;11.50;99.70;;;;;;957756;147;27300;-78
2022/09/28 00:13:46;;;;;;;1.20;1.00;;;11.50;99.70;;;;;;950293;148;27363;-76
2022/09/28 00:16:16;;;;;;;1.47;0.90;;;11.60;99.70;;;;;;966842;145;27423;-77
2022/09/28 00:18:39;;;;;;;2.07;1.10;;;11.60;99.70;;;;;;946605;148;27343;-77
2022/09/28 00:21:06;;;;;;;1.27;1.17;;;11.60;99.70;;;;;;943548;149;27386;-78
2022/09/28 00:23:32;;;;;;;1.00;1.00;;;11.60;99.70;;;;;;946145;149;27397;-76
2022/09/28 00:26:02;;;;;;;1.00;1.00;;;11.70;99.70;;;;;;949506;148;27469;-78
2022/09/28 00:28:28;;;;;;;2.73;1.00;;;11.70;99.90;;;;;;944995;148;27460;-77
2022/09/28 00:30:55;;;;;;;1.40;1.30;;;11.70;99.90;;;;;;948177;148;27332;-77
2022/09/28 00:33:21;;;;;;;1.70;1.20;;;11.70;99.90;;;;;;947573;149;27912;-77
2022/09/28 00:35:54;;;;;;;1.40;1.07;;;11.70;99.90;;;;;;945816;148;27336;-78
2022/09/28 00:38:20;;;;;;;1.57;1.10;;;11.80;99.90;;;;;;946315;148;27447;-78
2022/09/28 00:40:47;;;;;;;1.20;1.00;;;11.80;99.90;;;;;;956146;148;27858;-76
2022/09/28 00:43:19;;;;;;;1.27;0.90;;;11.80;99.90;;;;;;965038;146;27381;-77
2022/09/28 00:45:46;;;;;;;1.80;0.97;;;11.80;99.90;;;;;;964219;146;27370;-78
2022/09/28 00:48:12;;;;;;;3.63;1.23;;;11.80;99.90;;;;;;945632;148;27333;-76
2022/09/28 00:50:39;;;;;;;1.53;1.27;;;11.80;99.90;;;;;;947730;149;27856;-76
2022/09/28 00:53:08;;;;;;;2.17;1.03;;;11.80;99.90;;;;;;947568;149;27375;-77
2022/09/28 00:55:50;;;;;;;0.87;0.87;;;11.80;99.90;;;;;;966054;146;27415;-77
2022/09/28 00:58:19;;;;;;;1.00;1.00;;;11.80;99.90;;;;;;944235;146;27786;-77
2022/09/28 01:00:46;;;;;;;1.27;1.17;;;11.90;99.90;;;;;;932913;149;27374;-77
2022/09/28 01:03:13;;;;;;;2.27;1.20;;;11.90;99.90;;;;;;932232;149;27302;-77
2022/09/28 01:05:39;;;;;;;0.73;0.73;;;11.90;99.90;;;;;;933183;149;27318;-77
2022/09/28 01:08:06;;;;;;;1.67;1.33;;;11.90;99.90;;;;;;950348;146;27327;-77
2022/09/28 01:10:32;;;;;;;2.03;1.23;;;11.80;99.90;;;;;;951081;146;27341;-78
2022/09/28 01:12:58;;;;;;;1.53;1.10;;;11.90;99.90;;;;;;932829;149;27454;-76
2022/09/28 01:15:25;;;;;;;1.00;1.00;;;11.90;99.90;;;;;;947904;148;27344;-78
2022/09/28 01:18:00;;;;;;;2.97;1.40;;;11.90;99.90;;;;;;931694;149;27324;-76
2022/09/28 01:20:27;;;;;;;1.07;1.00;;;11.90;99.90;;;;;;933020;149;27408;-76
2022/09/28 01:23:08;;;;;;;1.00;1.00;;;11.90;99.90;;;;;;934036;149;27336;-76
2022/09/28 01:25:44;;;;;;;3.13;1.27;;;11.90;99.90;;;;;;952515;146;27389;-77
2022/09/28 01:28:13;;;;;;;1.20;1.10;;;11.90;99.90;;;;;;920485;148;27489;-76
2022/09/28 01:30:58;;;;;;;3.50;1.80;;;11.90;99.90;;;;;;948682;148;27347;-76
2022/09/28 01:33:27;;;;;;;1.87;1.00;;;11.80;99.90;;;;;;947687;148;27425;-76
2022/09/28 01:35:54;;;;;;;1.77;1.40;;;11.80;99.90;;;;;;954557;146;27335;-75
2022/09/28 01:38:23;;;;;;;1.17;0.93;;;11.80;99.90;;;;;;948726;146;27430;-75
2022/09/28 01:40:49;;;;;;;1.27;1.17;;;11.80;99.90;;;;;;949193;146;27268;-75
2022/09/28 01:43:25;;;;;;;1.23;1.13;;;11.80;99.90;;;;;;948950;146;27479;-77
2022/09/28 01:46:03;;;;;;;1.77;1.03;;;11.80;99.90;;;;;;948542;146;27450;-75
2022/09/28 01:48:30;;;;;;;1.00;0.90;;;11.80;99.90;;;;;;949152;146;27391;-76
2022/09/28 01:50:56;;;;;;;1.47;1.10;;;11.80;99.90;;;;;;946475;146;27311;-75
2022/09/28 01:53:26;;;;;;;1.27;1.10;;;11.80;99.90;;;;;;932893;150;27389;-76
2022/09/28 01:55:55;;;;;;;1.73;1.10;;;11.80;99.90;;;;;;932400;149;27747;-76
2022/09/28 01:58:24;;;;;;;1.63;1.10;;;11.80;99.90;;;;;;948597;146;27345;-75
2022/09/28 02:00:51;;;;;;;1.20;0.97;;;11.80;99.90;;;;;;947818;147;27449;-75
2022/09/28 02:03:17;;;;;;;1.47;1.37;;;11.80;99.90;;;;;;949306;147;27297;-76
2022/09/28 02:05:59;;;;;;;1.33;1.07;;;11.80;99.90;;;;;;949932;146;27350;-78
2022/09/28 02:08:31;;;;;;;1.63;0.90;;;11.80;99.90;;;;;;934466;149;27369;-75
2022/09/28 02:11:00;;;;;;;1.10;1.03;;;11.80;99.90;;;;;;931884;149;27303;-77
2022/09/28 02:13:32;;;;;;;1.20;1.10;;;11.80;99.90;;;;;;940214;149;27342;-75
2022/09/28 02:16:17;;;;;;;1.47;1.20;;;11.90;99.90;;;;;;940389;149;27441;-76
2022/09/28 02:18:44;;;;;;;1.10;0.87;;;11.90;99.90;;;;;;940671;149;27370;-76
2022/09/28 02:21:22;;;;;;;1.30;1.20;;;11.90;99.90;;;;;;948509;147;27233;-75
2022/09/28 02:23:52;;;;;;;1.07;1.00;;;11.90;99.90;;;;;;927001;151;27888;-75
2022/09/28 02:26:19;;;;;;;1.30;1.20;;;11.90;99.90;;;;;;941905;149;27406;-75
2022/09/28 02:28:45;;;;;;;2.73;1.20;;;11.90;99.90;;;;;;941006;149;27652;-77
2022/09/28 02:31:12;;;;;;;1.33;0.97;;;11.90;99.90;;;;;;941680;149;27937;-75
2022/09/28 02:33:38;;;;;;;4.20;1.10;;;11.90;99.90;;;;;;942228;149;27377;-75
2022/09/28 02:36:05;;;;;;;1.20;1.10;;;11.90;99.90;;;;;;940870;149;27267;-76
2022/09/28 02:38:32;;;;;;;1.20;1.00;;;11.90;99.90;;;;;;941656;149;27419;-76
2022/09/28 02:41:04;;;;;;;1.57;1.00;;;11.90;99.90;;;;;;941668;149;27400;-77
2022/09/28 02:43:58;;;;;;;3.17;1.10;;;11.90;99.90;;;;;;941326;149;27434;-75
2022/09/28 02:46:27;;;;;;;1.20;0.80;;;12.00;99.90;;;;;;941750;149;27365;-76
2022/09/28 02:49:22;;;;;;;2.00;0.83;;;12.00;99.90;;;;;;932388;150;27417;-79
2022/09/28 02:52:10;;;;;;;1.83;0.80;;;12.00;99.90;;;;;;950451;147;27313;-79
2022/09/28 02:54:51;;;;;;;2.53;1.10;;;12.00;99.90;;;;;;949926;147;27364;-80
2022/09/28 02:57:49;;;;;;;2.93;0.87;;;12.00;99.90;;;;;;927759;150;27329;-79
2022/09/28 03:00:18;;;;;;;0.90;0.90;;;12.00;99.90;;;;;;934856;149;27360;-79
2022/09/28 03:03:13;;;;;;;1.17;1.00;;;12.00;99.90;;;;;;950881;147;27319;-78
2022/09/28 03:05:59;;;;;;;0.83;0.83;;;12.00;99.90;;;;;;950458;147;27386;-79
2022/09/28 03:08:29;;;;;;;2.07;0.73;;;12.00;99.90;;;;;;949756;147;27384;-79
2022/09/28 03:10:56;;;;;;;1.37;0.80;;;12.00;99.90;;;;;;925141;149;27787;-78
2022/09/28 03:13:22;;;;;;;0.60;0.60;;;12.00;99.90;;;;;;932321;150;27422;-78
2022/09/28 03:15:49;;;;;;;2.23;1.37;;;12.00;99.90;;;;;;949106;147;27406;-79
2022/09/28 03:18:15;;;;;;;2.33;1.10;;;12.10;99.90;;;;;;950205;147;27289;-79
2022/09/28 03:20:42;;;;;;;1.83;0.90;;;12.10;99.90;;;;;;949022;146;27324;-79
2022/09/28 03:23:09;;;;;;;0.53;0.53;;;12.10;99.90;;;;;;950758;146;27947;-79
2022/09/28 03:25:35;;;;;;;1.43;0.80;;;12.20;99.90;;;;;;933602;149;27452;-79
2022/09/28 03:28:02;;;;;;;0.70;0.70;;;12.20;99.90;;;;;;935550;149;27330;-79
2022/09/28 03:30:28;;;;;;;1.47;0.70;;;12.20;99.90;;;;;;950109;146;27290;-78
2022/09/28 03:32:58;;;;;;;0.70;0.70;;;12.20;99.90;;;;;;951548;147;27416;-78
2022/09/28 03:35:24;;;;;;;0.60;0.60;;;12.20;99.90;;;;;;934114;149;27357;-78
2022/09/28 03:37:54;;;;;;;0.50;0.50;;;12.20;99.90;;;;;;935204;149;27319;-79
2022/09/28 03:40:20;;;;;;;0.53;0.53;;;12.20;99.90;;;;;;932427;150;27429;-78
2022/09/28 03:42:47;;;;;;;0.43;0.43;;;12.20;99.90;;;;;;940612;149;27315;-78
2022/09/28 03:45:13;;;;;;;2.43;0.40;;;12.20;99.90;;;;;;927045;150;28233;-79
2022/09/28 03:47:40;;;;;;;0.40;0.40;;;12.20;99.90;;;;;;941407;149;28830;-78
2022/09/28 03:50:06;;;;;;;0.40;0.40;;;12.10;99.90;;;;;;940079;149;27345;-79
2022/09/28 03:52:33;;;;;;;0.90;0.40;;;12.10;99.90;;;;;;940354;149;27367;-78
2022/09/28 03:55:00;;;;;;;0.50;0.50;;;12.10;99.90;;;;;;940933;149;27322;-78
2022/09/28 03:57:26;;;;;;;2.23;0.30;;;12.00;99.90;;;;;;940961;149;27385;-78
2022/09/28 03:59:53;;;;;;;0.77;0.40;;;12.00;99.90;;;;;;947047;147;27781;-78
2022/09/28 04:02:19;;;;;;;0.50;0.50;;;12.00;99.90;;;;;;940886;149;27879;-78
2022/09/28 04:04:46;;;;;;;1.03;0.60;;;12.00;99.90;;;;;;941901;149;27336;-78
2022/09/28 04:07:13;;;;;;;0.30;0.30;;;11.90;99.90;;;;;;941850;149;27420;-79
2022/09/28 04:09:39;;;;;;;1.20;0.43;;;11.90;99.90;;;;;;950373;147;27337;-78
2022/09/28 04:12:06;;;;;;;0.63;0.53;;;11.90;99.90;;;;;;950700;147;27770;-78
2022/09/28 04:14:32;;;;;;;0.70;0.40;;;11.90;99.90;;;;;;950794;147;27461;-78
2022/09/28 04:16:59;;;;;;;0.43;0.37;;;11.80;99.90;;;;;;950472;146;27372;-78
2022/09/28 04:19:26;;;;;;;0.60;0.60;;;11.80;99.90;;;;;;934722;149;27392;-78
2022/09/28 04:21:52;;;;;;;0.50;0.47;;;11.80;99.90;;;;;;935064;149;27428;-78
2022/09/28 04:24:19;;;;;;;0.63;0.50;;;11.80;99.90;;;;;;927343;150;27366;-78
2022/09/28 04:26:45;;;;;;;1.37;0.70;;;11.80;99.90;;;;;;941648;149;27263;-78
2022/09/28 04:29:15;;;;;;;0.47;0.43;;;11.70;99.90;;;;;;941399;149;27928;-78
2022/09/28 04:31:50;;;;;;;1.00;0.70;;;11.70;99.90;;;;;;941808;149;27330;-78
2022/09/28 04:34:16;;;;;;;0.50;0.50;;;11.60;99.90;;;;;;940981;149;27376;-79
2022/09/28 04:36:43;;;;;;;0.70;0.60;;;11.60;99.90;;;;;;927121;150;27436;-78
2022/09/28 04:39:09;;;;;;;1.67;0.60;;;11.50;99.90;;;;;;932058;150;27409;-78
2022/09/28 04:41:36;;;;;;;0.87;0.87;;;11.50;99.90;;;;;;933708;150;27419;-78
2022/09/28 04:44:03;;;;;;;1.77;1.00;;;11.40;99.90;;;;;;926717;150;27479;-78
2022/09/28 04:46:29;;;;;;;1.50;1.40;;;11.40;99.90;;;;;;950182;147;27369;-78
2022/09/28 04:48:56;;;;;;;1.77;1.60;;;11.30;99.90;;;;;;944565;149;27466;-78
2022/09/28 04:51:22;;;;;;;1.10;1.00;;;11.30;99.90;;;;;;926794;149;27378;-78
2022/09/28 04:53:49;;;;;;;1.77;1.13;;;11.30;99.90;;;;;;939978;149;27322;-78
2022/09/28 04:56:15;;;;;;;1.30;0.87;;;11.20;99.90;;;;;;934994;150;27305;-78
2022/09/28 04:58:42;;;;;;;3.00;1.03;;;11.20;99.90;;;;;;932166;149;27874;-78
2022/09/28 05:01:09;;;;;;;1.40;0.80;;;11.20;99.90;;;;;;928117;150;27389;-78
2022/09/28 05:03:35;;;;;;;0.93;0.90;;;11.20;99.90;;;;;;952615;150;27295;-78
2022/09/28 05:06:02;;;;;;;1.60;1.00;;;11.20;99.90;;;;;;940888;151;27442;-78
2022/09/28 05:08:29;;;;;;;3.33;1.20;;;11.10;99.90;;;;;;929522;153;27391;-78
2022/09/28 05:11:00;;;;;;;2.90;0.97;;;11.20;99.90;;;;;;944072;150;27410;-78
2022/09/28 05:13:24;;;;;;;1.40;0.87;;;11.10;99.90;;;;;;937373;152;27470;-79
2022/09/28 05:15:51;;;;;;;1.00;0.80;;;11.20;99.90;;;;;;931395;154;27288;-78
2022/09/28 05:18:17;;;;;;;2.07;1.43;;;11.20;99.90;;;;;;937298;150;27294;-79
2022/09/28 05:20:44;;;;;;;1.60;1.23;;;11.20;99.90;;;;;;953522;150;27332;-78
2022/09/28 05:23:11;;;;;;;1.70;1.20;;;11.20;99.90;;;;;;943284;150;27430;-78
2022/09/28 05:25:37;;;;;;;1.17;1.00;;;11.20;99.90;;;;;;953825;150;27367;-78
2022/09/28 05:28:04;;;;;;;16.13;1.60;;;11.30;99.90;;;;;;931599;150;27339;-78
2022/09/28 05:30:30;;;;;;;0.90;0.90;;;11.30;99.90;;;;;;953096;148;27315;-78
2022/09/28 05:32:57;;;;;;;3.77;1.17;;;11.30;99.90;;;;;;931186;154;27318;-78
2022/09/28 05:35:24;;;;;;;0.83;0.83;;;11.40;99.90;;;;;;939089;150;27314;-78
2022/09/28 05:37:50;;;;;;;1.23;1.13;;;11.40;99.90;;;;;;953291;148;27342;-78
2022/09/28 05:40:17;;;;;;;1.10;1.10;;;11.40;99.90;;;;;;937233;150;27378;-78
2022/09/28 05:42:43;;;;;;;1.40;1.20;;;11.40;99.90;;;;;;935759;150;27324;-78
2022/09/28 05:45:10;;;;;;;1.30;1.20;;;11.50;99.90;;;;;;937172;150;27377;-78
2022/09/28 05:47:36;;;;;;;1.10;1.10;;;11.50;99.90;;;;;;928837;153;27422;-78
2022/09/28 05:50:03;;;;;;;1.30;1.10;;;11.50;99.90;;;;;;940822;152;27349;-78
2022/09/28 05:52:30;;;;;;;2.90;1.40;;;11.50;99.90;;;;;;947210;150;27329;-78
2022/09/28 05:54:56;;;;;;;0.93;0.83;;;11.60;99.90;;;;;;931020;152;27407;-78
2022/09/28 05:57:23;;;;;;;2.70;1.40;;;11.60;99.90;;;;;;953399;150;27283;-78
2022/09/28 05:59:49;;;;;;;2.37;1.70;;;11.60;99.90;;;;;;953900;149;27248;-78
2022/09/28 06:02:16;;;;;;;1.73;1.33;;;11.70;99.90;;;;;;950686;147;27438;-78
2022/09/28 06:04:43;;;;;;;1.47;1.10;;;11.70;99.90;;;;;;950696;147;27829;-79
2022/09/28 06:07:09;;;;;;;1.53;1.10;;;11.70;99.90;;;;;;939529;149;27362;-78
2022/09/28 06:09:36;;;;;;;2.00;1.30;;;11.70;99.90;;;;;;950070;147;27311;-78
2022/09/28 06:12:02;;;;;;;1.20;1.03;;;11.80;99.90;;;;;;951265;147;27687;-78
2022/09/28 06:14:29;;;;;;;1.20;1.10;;;11.80;99.90;;;;;;948052;147;27462;-78
2022/09/28 06:16:56;;;;;;;1.10;1.10;;;11.80;99.90;;;;;;940925;149;27446;-78
2022/09/28 06:19:22;;;;;;;1.23;1.10;;;11.80;99.90;;;;;;940592;149;27345;-78
2022/09/28 06:21:49;;;;;;;1.40;1.30;;;11.90;99.90;;;;;;940767;149;27343;-78
2022/09/28 06:24:15;;;;;;;5.63;1.20;;;11.90;99.90;;;;;;941721;149;27403;-78
2022/09/28 06:26:42;;;;;;;2.03;1.13;;;12.00;99.90;;;;;;940392;149;27334;-78
2022/09/28 06:29:08;;;;;;;1.37;1.00;;;12.20;99.90;;;;;;941829;149;27373;-78
2022/09/28 06:31:35;;;;;;;1.47;1.37;;;12.60;99.90;;;;;;941386;149;27437;-78
2022/09/28 06:34:02;;;;;;;1.23;1.13;;;13.00;99.90;;;;;;941139;149;27330;-78
2022/09/28 06:36:30;;;;;;;0.90;0.90;;;13.60;99.90;;;;;;940957;149;27336;-79
2022/09/28 06:38:55;;;;;;;0.90;0.90;;;14.30;99.90;;;;;;947648;147;27331;-79
2022/09/28 06:41:21;;;;;;;1.05;0.95;;;15.10;99.90;;;;;;931462;149;27319;-79
2022/09/28 06:43:48;;;;;;;1.00;1.00;;;15.90;99.90;;;;;;941137;149;27506;-79
2022/09/28 06:46:15;;;;;;;0.95;0.95;;;16.70;99.90;;;;;;941022;149;27361;-79
2022/09/28 06:48:43;;;;;;;1.95;1.10;;;17.50;99.90;;;;;;941736;149;27283;-79
2022/09/28 06:51:08;;;;;;;0.68;0.68;;;18.20;99.90;;;;;;948226;147;27831;-79
2022/09/28 06:53:34;;;;;;;1.35;1.02;;;18.70;99.80;;;;;;951303;147;27293;-79
2022/09/28 06:56:01;;;;;;;1.70;0.93;;;19.00;95.40;;;;;;935009;149;27450;-79
2022/09/28 06:58:28;;;;;;;3.58;1.17;;;19.20;92.40;;;;;;926637;150;28314;-79
2022/09/28 07:00:54;;;;;;;1.27;1.00;;;19.10;90.20;;;;;;940143;149;27326;-79
2022/09/28 07:03:21;;;;;;;1.80;1.05;;;19.10;89.10;;;;;;938193;151;27337;-79
2022/09/28 07:05:51;;;;;;;2.05;0.98;;;18.90;88.30;;;;;;956923;148;27300;-79
2022/09/28 07:08:17;;;;;;;1.85;0.95;;;18.80;87.40;;;;;;949247;151;27408;-79
2022/09/28 07:10:43;;;;;;;1.72;1.05;;;18.80;89.70;;;;;;957277;149;27355;-79
2022/09/28 07:13:10;;;;;;;1.12;0.82;;;18.80;91.40;;;;;;932422;153;27408;-79
2022/09/28 07:15:36;;;;;;;1.20;1.00;;;18.90;90.80;;;;;;933759;153;27423;-79
2022/09/28 07:18:04;;;;;;;1.50;1.40;;;18.90;89.30;;;;;;942215;150;27397;-79
2022/09/28 07:20:30;;;;;;;2.65;1.98;;;19.00;88.30;;;;;;942250;149;27453;-79
2022/09/28 07:22:56;;;;;;;2.52;1.75;;;19.20;91.10;;;;;;944137;150;27352;-79
2022/09/28 07:25:24;;;;;;;1.30;1.20;;;19.40;92.80;;;;;;939519;152;27375;-79
2022/09/28 07:27:49;;;;;;;1.98;1.37;;;19.90;93.80;;;;;;936684;151;27342;-79
2022/09/28 07:30:16;;;;;;;0.90;0.90;;;20.50;94.40;;;;;;936862;152;27408;-79
2022/09/28 07:32:43;;;;;;;0.68;0.68;;;21.20;93.50;;;;;;934968;150;27395;-79
2022/09/28 07:35:09;;;;;;;0.70;0.70;;;21.90;92.20;;;;;;940533;149;27398;-79
2022/09/28 07:37:36;;;;;;;0.42;0.42;;;22.50;87.80;;;;;;941359;152;27341;-79
2022/09/28 07:42:50;;;;;;;0.70;0.55;;;23.10;77.10;;;;;;956728;149;27283;-79
2022/09/28 07:45:19;;;;;;;0.30;0.30;;;23.20;74.20;;;;;;949715;150;27301;-80
2022/09/28 07:47:44;;;;;;;0.50;0.47;;;23.10;73.20;;;;;;956836;149;27320;-80
2022/09/28 07:50:10;;;;;;;0.88;0.47;;;23.20;72.70;;;;;;941389;152;27381;-80
2022/09/28 07:52:37;;;;;;;0.68;0.68;;;23.30;74.60;;;;;;949796;151;27320;-80
2022/09/28 07:55:03;;;;;;;0.50;0.50;;;23.60;74.60;;;;;;937443;152;27315;-80
2022/09/28 07:57:32;;;;;;;0.60;0.47;;;23.80;74.80;;;;;;938227;151;27435;-80
2022/09/28 07:59:56;;;;;;;0.57;0.50;;;24.30;73.50;;;;;;937121;152;27449;-80
2022/09/28 08:02:23;;;;;;;0.65;0.40;;;24.60;72.10;;;;;;941194;149;27519;-80
2022/09/28 08:04:50;;;;;;;0.53;0.42;;;24.90;70.40;;;;;;947986;147;27340;-80
2022/09/28 08:07:16;;;;;;;0.50;0.50;;;25.30;69.80;;;;;;941163;149;27335;-80
2022/09/28 08:09:43;;;;;;;0.60;0.50;;;25.60;69.80;;;;;;941111;149;27371;-80
2022/09/28 08:12:09;;;;;;;0.95;0.40;;;26.00;69.50;;;;;;940068;149;27439;-80
2022/09/28 08:14:36;;;;;;;0.35;0.35;;;26.30;67.30;;;;;;934609;150;27420;-80
2022/09/28 08:17:03;;;;;;;3.00;1.32;;;26.60;65.60;;;;;;944949;150;27351;-80
2022/09/28 08:21:56;;;;;;;0.60;0.55;;;26.80;63.30;;;;;;943357;147;27277;-80
2022/09/28 08:24:23;;;;;;;1.77;0.80;;;26.80;61.90;;;;;;948730;147;27265;-80
2022/09/28 08:26:49;;;;;;;1.62;0.70;;;26.70;60.70;;;;;;941161;149;27338;-80
2022/09/28 08:29:16;;;;;;;1.12;0.80;;;26.50;59.60;;;;;;948151;147;27317;-80
2022/09/28 08:31:42;;;;;;;1.00;0.80;;;26.20;58.90;;;;;;950600;147;27321;-80
2022/09/28 08:34:09;;;;;;;0.85;0.60;;;25.90;58.60;;;;;;949993;147;27298;-80
2022/09/28 08:36:35;;;;;;;0.57;0.57;;;25.70;59.40;;;;;;948556;147;27281;-80
2022/09/28 08:39:02;;;;;;;1.17;0.50;;;25.70;60.40;;;;;;941730;149;27428;-80
2022/09/28 08:41:33;;;;;;;0.82;0.60;;;25.90;61.40;;;;;;942067;149;27338;-80
2022/09/28 08:44:22;;;;;;;0.30;0.30;;;26.20;61.50;;;;;;941337;149;27394;-80
2022/09/28 08:46:45;;;;;;;0.65;0.50;;;26.50;61.40;;;;;;940745;149;27254;-80
2022/09/28 08:49:17;;;;;;;0.53;0.40;;;26.90;61.20;;;;;;940995;149;27350;-80
2022/09/28 08:52:05;;;;;;;0.55;0.47;;;27.30;60.70;;;;;;939978;149;27345;-80
2022/09/28 08:54:32;;;;;;;0.50;0.35;;;27.70;60.10;;;;;;941236;149;27454;-79
2022/09/28 08:57:01;;;;;;;5.60;0.57;;;28.10;59.30;;;;;;941470;149;27273;-79
2022/09/28 08:59:49;;;;;;;2.27;0.82;;;28.20;57.60;;;;;;940059;149;27311;-79
2022/09/28 09:02:15;;;;;;;1.92;0.50;;;28.40;56.70;;;;;;940993;149;27328;-79
2022/09/28 09:04:42;;;;;;;2.40;0.60;;;28.50;56.80;;;;;;941514;149;27344;-79
2022/09/28 09:07:29;;;;;;;2.17;0.33;;;28.50;56.00;;;;;;942041;148;27418;-79
2022/09/28 09:10:11;;;;;;;3.20;0.80;;;28.40;54.90;;;;;;949840;147;27417;-79
2022/09/28 09:12:38;;;;;;;1.32;0.40;;;28.40;54.00;;;;;;927557;151;27404;-79
2022/09/28 09:15:16;;;;;;;1.55;0.62;;;28.10;53.00;;;;;;943389;148;27291;-79
2022/09/28 09:17:46;;;;;;;0.47;0.47;;;27.80;53.00;;;;;;950121;147;27342;-79
2022/09/28 09:20:19;;;;;;;0.53;0.40;;;27.50;52.40;;;;;;949771;147;27322;-79
2022/09/28 09:22:50;;;;;;;1.72;0.45;;;27.20;53.40;;;;;;934596;150;27315;-79
2022/09/28 09:25:17;;;;;;;1.45;0.53;;;27.00;54.30;;;;;;925781;150;27308;-79
2022/09/28 09:27:46;;;;;;;1.55;0.70;;;26.70;54.60;;;;;;940683;149;27311;-79
2022/09/28 09:30:13;;;;;;;0.35;0.35;;;26.60;54.00;;;;;;941578;149;27475;-79
2022/09/28 09:32:52;;;;;;;1.02;0.55;;;26.30;53.40;;;;;;933981;149;27862;-80
2022/09/28 09:35:46;;;;;;;0.65;0.65;;;26.00;52.90;;;;;;927153;150;27355;-79
2022/09/28 09:38:27;;;;;;;2.08;0.70;;;25.50;52.60;;;;;;933122;149;27355;-79
2022/09/28 09:41:09;;;;;;;0.72;0.55;;;24.90;52.60;;;;;;942190;149;27320;-79
2022/09/28 09:44:13;;;;;;;1.30;0.60;;;24.30;52.90;;;;;;933968;149;27504;-78
2022/09/28 09:46:42;;;;;;;2.58;0.70;;;23.80;53.40;;;;;;928315;150;27372;-79
2022/09/28 09:49:15;;;;;;;1.50;0.60;;;23.20;54.10;;;;;;948344;147;27470;-79
2022/09/28 09:51:56;;;;;;;1.47;0.42;;;22.70;54.40;;;;;;925045;150;27377;-79
2022/09/28 09:54:29;;;;;;;0.60;0.60;;;22.20;54.60;;;;;;933134;150;27335;-79
2022/09/28 09:57:04;;;;;;;0.75;0.37;;;21.80;55.10;;;;;;948219;147;27409;-79
2022/09/28 09:59:32;;;;;;;0.62;0.60;;;21.40;55.50;;;;;;941124;149;27318;-79
2022/09/28 10:01:57;;;;;;;0.70;0.53;;;21.00;55.70;;;;;;948407;147;27381;-79
2022/09/28 10:04:24;;;;;;;0.50;0.50;;;20.60;56.20;;;;;;950472;147;27405;-79
2022/09/28 10:06:50;;;;;;;1.12;0.50;;;20.30;56.80;;;;;;934706;149;27287;-79
2022/09/28 10:09:23;;;;;;;0.85;0.50;;;20.10;57.10;;;;;;925654;150;27334;-79
2022/09/28 10:11:50;;;;;;;1.12;0.57;;;19.80;57.50;;;;;;941790;149;27443;-79
2022/09/28 10:14:16;;;;;;;0.93;0.80;;;19.60;57.80;;;;;;948684;147;27416;-79
2022/09/28 10:16:47;;;;;;;0.30;0.30;;;19.50;58.20;;;;;;941858;149;27782;-79
2022/09/28 10:19:12;;;;;;;1.22;0.70;;;19.30;58.50;;;;;;948752;147;27303;-79
2022/09/28 10:21:39;;;;;;;0.30;0.30;;;19.20;59.10;;;;;;940267;149;27310;-79
2022/09/28 10:24:07;;;;;;;1.45;0.80;;;19.10;59.50;;;;;;940886;149;27338;-79
2022/09/28 10:26:35;;;;;;;0.65;0.47;;;19.10;59.60;;;;;;941148;149;27442;-79
2022/09/28 10:29:02;;;;;;;1.47;0.57;;;19.10;60.50;;;;;;940709;149;27298;-79
2022/09/28 10:31:43;;;;;;;0.75;0.68;;;19.10;59.90;;;;;;939539;149;27315;-78
2022/09/28 10:34:09;;;;;;;0.70;0.55;;;19.10;59.80;;;;;;947851;147;27409;-79
2022/09/28 10:37:01;;;;;;;0.90;0.62;;;19.10;59.70;;;;;;948539;147;27409;-79
2022/09/28 10:39:35;;;;;;;3.55;0.70;;;19.00;59.70;;;;;;939606;149;27907;-79
2022/09/28 10:42:02;;;;;;;1.00;0.55;;;19.00;60.00;;;;;;947040;147;27320;-78
2022/09/28 10:44:27;;;;;;;0.53;0.45;;;18.90;60.00;;;;;;941488;149;27556;-79
2022/09/28 10:46:56;;;;;;;0.90;0.60;;;18.90;60.10;;;;;;941976;149;27318;-79
2022/09/28 10:49:23;;;;;;;1.02;0.50;;;18.90;60.00;;;;;;939654;149;27338;-78
2022/09/28 10:51:50;;;;;;;0.88;0.70;;;18.90;59.80;;;;;;948057;147;27299;-79
2022/09/28 10:54:16;;;;;;;0.78;0.60;;;18.90;59.80;;;;;;950290;147;27357;-78
2022/09/28 10:56:42;;;;;;;0.93;0.93;;;18.80;59.40;;;;;;925370;150;27390;-78
2022/09/28 10:59:30;;;;;;;0.57;0.50;;;18.70;59.30;;;;;;949840;146;27376;-78
2022/09/28 11:01:59;;;;;;;0.35;0.35;;;18.60;59.20;;;;;;949770;146;27352;-78
2022/09/28 11:04:26;;;;;;;0.33;0.30;;;18.50;58.60;;;;;;949418;146;27369;-78
2022/09/28 11:06:58;;;;;;;0.40;0.40;;;18.30;59.20;;;;;;955341;146;27339;-78
2022/09/28 11:09:28;;;;;;;0.60;0.60;;;18.20;59.30;;;;;;947420;148;27766;-78
2022/09/28 11:11:54;;;;;;;2.08;0.55;;;18.10;59.50;;;;;;932903;149;27327;-78
2022/09/28 11:14:35;;;;;;;0.90;0.50;;;18.00;59.80;;;;;;933022;149;27782;-79
2022/09/28 11:17:24;;;;;;;0.88;0.82;;;17.90;60.10;;;;;;948141;149;27334;-78
2022/09/28 11:19:51;;;;;;;2.15;0.65;;;17.90;60.40;;;;;;946015;148;27371;-78
2022/09/28 11:22:22;;;;;;;0.50;0.50;;;17.90;60.90;;;;;;946194;148;27364;-78
2022/09/28 11:24:49;;;;;;;0.65;0.37;;;17.90;61.20;;;;;;948065;148;27325;-78
2022/09/28 11:27:21;;;;;;;1.55;0.80;;;18.00;61.50;;;;;;948530;148;27333;-78
2022/09/28 11:29:54;;;;;;;1.65;0.72;;;18.00;61.60;;;;;;954497;146;27306;-78
2022/09/28 11:32:20;;;;;;;3.30;1.12;;;18.20;61.70;;;;;;949335;146;27308;-78
2022/09/28 11:34:46;;;;;;;1.50;0.80;;;18.30;61.90;;;;;;933125;149;27377;-78
2022/09/28 11:37:32;;;;;;;1.30;0.88;;;18.40;62.00;;;;;;949658;146;27404;-78
2022/09/28 11:40:13;;;;;;;1.02;0.82;;;18.60;61.40;;;;;;948588;146;27436;-78
2022/09/28 11:42:52;;;;;;;1.10;0.78;;;18.80;61.40;;;;;;948751;146;27331;-78
2022/09/28 11:45:43;;;;;;;0.93;0.80;;;18.90;61.10;;;;;;948529;146;27315;-78
2022/09/28 11:48:15;;;;;;;0.60;0.55;;;19.00;61.00;;;;;;949114;146;27354;-78
2022/09/28 11:50:48;;;;;;;1.72;0.80;;;19.10;61.00;;;;;;953423;146;27283;-78
2022/09/28 11:53:33;;;;;;;0.50;0.50;;;19.30;60.70;;;;;;949195;146;27295;-78
2022/09/28 11:56:02;;;;;;;0.70;0.70;;;19.30;60.10;;;;;;943194;149;27368;-78
2022/09/28 11:58:35;;;;;;;0.90;0.70;;;19.40;59.80;;;;;;948042;146;27444;-78
2022/09/28 12:01:07;;;;;;;0.85;0.60;;;19.50;59.70;;;;;;932398;149;27681;-78
2022/09/28 12:03:39;;;;;;;2.22;0.82;;;19.50;59.50;;;;;;922929;146;27322;-78
2022/09/28 12:06:05;;;;;;;0.65;0.65;;;19.60;59.40;;;;;;928339;149;27434;-78
2022/09/28 12:08:32;;;;;;;1.30;0.70;;;19.70;59.30;;;;;;949290;147;27415;-78
2022/09/28 12:10:59;;;;;;;0.78;0.60;;;19.70;59.10;;;;;;950331;147;27415;-78
2022/09/28 12:13:34;;;;;;;2.05;0.75;;;19.80;59.20;;;;;;927267;151;27758;-79
2022/09/28 12:16:03;;;;;;;0.40;0.40;;;19.80;59.20;;;;;;935897;148;27319;-78
2022/09/28 12:18:30;;;;;;;0.75;0.75;;;19.80;58.80;;;;;;941872;148;27320;-78
2022/09/28 12:20:59;;;;;;;0.93;0.70;;;19.80;58.50;;;;;;944556;148;27364;-78
2022/09/28 12:23:29;;;;;;;0.80;0.80;;;19.90;58.40;;;;;;945603;148;27310;-78
2022/09/28 12:26:04;;;;;;;1.47;0.80;;;19.90;58.50;;;;;;945996;148;27429;-78
2022/09/28 12:28:49;;;;;;;0.85;0.85;;;19.90;58.40;;;;;;945575;148;27360;-78
2022/09/28 12:31:25;;;;;;;1.67;1.57;;;19.90;58.30;;;;;;946804;148;27365;-79
2022/09/28 12:33:51;;;;;;;1.40;1.27;;;19.90;58.30;;;;;;945388;148;27336;-79
2022/09/28 12:36:27;;;;;;;0.90;0.62;;;19.90;58.30;;;;;;947037;148;27730;-79
2022/09/28 12:38:50;;;;;;;1.50;0.72;;;19.90;57.80;;;;;;946400;148;27297;-79
2022/09/28 12:41:27;;;;;;;0.53;0.40;;;19.80;57.80;;;;;;947943;148;27466;-79
2022/09/28 12:44:07;;;;;;;0.60;0.60;;;19.80;57.60;;;;;;947081;148;27703;-79
2022/09/28 12:46:36;;;;;;;0.95;0.70;;;19.70;57.70;;;;;;944598;148;27349;-79
2022/09/28 12:49:30;;;;;;;1.57;0.60;;;19.70;58.00;;;;;;947416;148;27412;-79
2022/09/28 12:52:18;;;;;;;0.50;0.50;;;19.60;58.10;;;;;;947040;148;27409;-79
2022/09/28 12:54:56;;;;;;;0.47;0.47;;;19.50;58.10;;;;;;927539;148;27758;-78
2022/09/28 12:57:48;;;;;;;2.30;0.60;;;19.50;58.10;;;;;;947363;148;27465;-78
2022/09/28 13:00:14;;;;;;;0.75;0.45;;;19.40;57.70;;;;;;947433;148;27372;-78
2022/09/28 13:02:44;;;;;;;1.62;0.72;;;19.40;57.90;;;;;;946647;148;27425;-78
2022/09/28 13:05:13;;;;;;;1.32;0.72;;;19.30;58.10;;;;;;944902;148;27310;-78
2022/09/28 13:07:48;;;;;;;0.55;0.55;;;19.30;58.30;;;;;;941055;151;27304;-78